sensor_id;sensor_type;location;lat;lon;timestamp;pressure;altitude;pressure_sealevel;temperature;humidity
6899;BME280;3488;42.616;23.350;2023-05-24T00:00:33;63342.38;;;12.96;100.00
6899;BME280;3488;42.616;23.350;2023-05-24T00:03:01;63339.31;;;12.96;100.00
6899;BME280;3488;42.616;23.350;2023-05-24T00:05:29;63325.81;;;12.82;100.00
6899;BME280;3488;42.616;23.350;2023-05-24T00:07:58;63330.97;;;12.85;100.00
6899;BME280;3488;42.616;23.350;2023-05-24T00:10:25;63343.97;;;13.00;100.00
6899;BME280;3488;42.616;23.350;2023-05-24T00:12:52;63331.00;;;12.88;100.00
6899;BME280;3488;42.616;23.350;2023-05-24T00:15:19;63336.19;;;12.93;100.00
6899;BME280;3488;42.616;23.350;2023-05-24T00:17:46;63319.16;;;12.81;100.00
6899;BME280;3488;42.616;23.350;2023-05-24T00:20:14;63314.97;;;12.74;100.00
6899;BME280;3488;42.616;23.350;2023-05-24T00:22:41;63309.25;;;12.69;100.00
6899;BME280;3488;42.616;23.350;2023-05-24T00:25:10;63332.59;;;12.92;100.00
6899;BME280;3488;42.616;23.350;2023-05-24T00:27:37;63320.66;;;12.80;100.00
6899;BME280;3488;42.616;23.350;2023-05-24T00:30:05;63333.06;;;12.90;100.00
6899;BME280;3488;42.616;23.350;2023-05-24T00:32:33;63332.53;;;12.89;100.00
6899;BME280;3488;42.616;23.350;2023-05-24T00:35:01;63328.44;;;12.88;100.00
6899;BME280;3488;42.616;23.350;2023-05-24T00:37:28;63323.81;;;12.86;100.00
6899;BME280;3488;42.616;23.350;2023-05-24T00:39:55;63317.06;;;12.79;100.00
6899;BME280;3488;42.616;23.350;2023-05-24T00:42:24;63314.97;;;12.74;100.00
6899;BME280;3488;42.616;23.350;2023-05-24T00:44:51;63321.69;;;12.78;100.00
6899;BME280;3488;42.616;23.350;2023-05-24T00:47:18;63320.63;;;12.77;100.00
6899;BME280;3488;42.616;23.350;2023-05-24T00:49:45;63313.34;;;12.68;100.00
6899;BME280;3488;42.616;23.350;2023-05-24T00:52:13;63289.16;;;12.57;100.00
6899;BME280;3488;42.616;23.350;2023-05-24T00:54:41;63291.06;;;12.49;100.00
6899;BME280;3488;42.616;23.350;2023-05-24T00:57:08;63273.47;;;12.34;100.00
6899;BME280;3488;42.616;23.350;2023-05-24T00:59:39;63274.03;;;12.37;100.00
6899;BME280;3488;42.616;23.350;2023-05-24T01:02:07;63244.38;;;12.01;100.00
6899;BME280;3488;42.616;23.350;2023-05-24T01:04:34;63229.00;;;11.96;100.00
6899;BME280;3488;42.616;23.350;2023-05-24T01:07:10;63260.53;;;12.22;100.00
6899;BME280;3488;42.616;23.350;2023-05-24T01:09:54;63261.53;;;12.20;100.00
6899;BME280;3488;42.616;23.350;2023-05-24T01:12:31;63248.66;;;12.13;100.00
6899;BME280;3488;42.616;23.350;2023-05-24T01:15:09;63238.72;;;11.98;100.00
6899;BME280;3488;42.616;23.350;2023-05-24T01:17:47;63246.53;;;12.08;100.00
6899;BME280;3488;42.616;23.350;2023-05-24T01:20:19;63243.44;;;12.05;100.00
6899;BME280;3488;42.616;23.350;2023-05-24T01:23:03;63240.31;;;12.02;100.00
6899;BME280;3488;42.616;23.350;2023-05-24T01:25:44;63225.84;;;11.91;100.00
6899;BME280;3488;42.616;23.350;2023-05-24T01:28:15;63228.44;;;11.93;100.00
6899;BME280;3488;42.616;23.350;2023-05-24T01:30:44;63228.88;;;11.89;100.00
6899;BME280;3488;42.616;23.350;2023-05-24T01:33:11;63224.28;;;11.89;100.00
6899;BME280;3488;42.616;23.350;2023-05-24T01:35:38;63233.00;;;11.90;100.00
6899;BME280;3488;42.616;23.350;2023-05-24T01:38:07;63220.63;;;11.83;100.00
6899;BME280;3488;42.616;23.350;2023-05-24T01:40:37;63221.66;;;11.84;100.00
6899;BME280;3488;42.616;23.350;2023-05-24T01:43:13;63215.00;;;11.83;100.00
6899;BME280;3488;42.616;23.350;2023-05-24T01:45:49;63208.22;;;11.74;100.00
6899;BME280;3488;42.616;23.350;2023-05-24T01:48:37;63218.47;;;11.76;100.00
6899;BME280;3488;42.616;23.350;2023-05-24T01:51:09;63206.13;;;11.69;100.00
6899;BME280;3488;42.616;23.350;2023-05-24T01:53:43;63184.88;;;11.48;100.00
6899;BME280;3488;42.616;23.350;2023-05-24T01:56:12;63177.09;;;11.41;100.00
6899;BME280;3488;42.616;23.350;2023-05-24T01:58:43;63200.41;;;11.63;100.00
6899;BME280;3488;42.616;23.350;2023-05-24T02:01:12;63199.38;;;11.62;100.00
6899;BME280;3488;42.616;23.350;2023-05-24T02:03:40;63186.47;;;11.52;100.00
6899;BME280;3488;42.616;23.350;2023-05-24T02:06:08;63190.00;;;11.51;100.00
6899;BME280;3488;42.616;23.350;2023-05-24T02:08:35;63191.13;;;11.57;100.00
6899;BME280;3488;42.616;23.350;2023-05-24T02:11:02;63172.91;;;11.34;100.00
6899;BME280;3488;42.616;23.350;2023-05-24T02:13:29;63123.25;;;10.89;100.00
6899;BME280;3488;42.616;23.350;2023-05-24T02:15:57;63156.34;;;11.18;100.00
6899;BME280;3488;42.616;23.350;2023-05-24T02:18:25;63152.75;;;11.17;100.00
6899;BME280;3488;42.616;23.350;2023-05-24T02:20:59;63150.72;;;11.18;100.00
6899;BME280;3488;42.616;23.350;2023-05-24T02:23:27;63150.16;;;11.15;100.00
6899;BME280;3488;42.616;23.350;2023-05-24T02:25:54;63143.97;;;11.09;100.00
6899;BME280;3488;42.616;23.350;2023-05-24T02:28:21;63137.25;;;11.05;100.00
6899;BME280;3488;42.616;23.350;2023-05-24T02:30:49;63138.22;;;11.01;100.00
6899;BME280;3488;42.616;23.350;2023-05-24T02:33:16;63132.06;;;10.97;100.00
6899;BME280;3488;42.616;23.350;2023-05-24T02:35:45;63127.44;;;10.95;100.00
6899;BME280;3488;42.616;23.350;2023-05-24T02:38:12;63141.88;;;11.07;100.00
6899;BME280;3488;42.616;23.350;2023-05-24T02:40:39;63142.41;;;11.07;100.00
6899;BME280;3488;42.616;23.350;2023-05-24T02:43:06;63144.97;;;11.10;100.00
6899;BME280;3488;42.616;23.350;2023-05-24T02:45:34;63141.34;;;11.06;100.00
6899;BME280;3488;42.616;23.350;2023-05-24T02:48:02;63140.38;;;11.08;100.00
6899;BME280;3488;42.616;23.350;2023-05-24T02:50:29;63143.41;;;11.06;100.00
6899;BME280;3488;42.616;23.350;2023-05-24T02:52:57;63146.59;;;11.14;100.00
6899;BME280;3488;42.616;23.350;2023-05-24T02:55:25;63140.41;;;11.10;100.00
6899;BME280;3488;42.616;23.350;2023-05-24T02:57:53;63145.50;;;11.10;100.00
6899;BME280;3488;42.616;23.350;2023-05-24T03:00:21;63142.44;;;11.10;100.00
6899;BME280;3488;42.616;23.350;2023-05-24T03:02:48;63151.13;;;11.11;100.00
6899;BME280;3488;42.616;23.350;2023-05-24T03:05:20;63146.59;;;11.14;100.00
6899;BME280;3488;42.616;23.350;2023-05-24T03:07:46;63160.00;;;11.24;100.00
6899;BME280;3488;42.616;23.350;2023-05-24T03:10:16;63171.88;;;11.33;100.00
6899;BME280;3488;42.616;23.350;2023-05-24T03:12:43;63173.00;;;11.39;100.00
6899;BME280;3488;42.616;23.350;2023-05-24T03:15:10;63183.84;;;11.47;100.00
6899;BME280;3488;42.616;23.350;2023-05-24T03:17:37;63174.03;;;11.40;100.00
6899;BME280;3488;42.616;23.350;2023-05-24T03:20:06;63191.03;;;11.52;100.00
6899;BME280;3488;42.616;23.350;2023-05-24T03:22:33;63181.25;;;11.45;100.00
6899;BME280;3488;42.616;23.350;2023-05-24T03:25:00;63207.16;;;11.70;100.00
6899;BME280;3488;42.616;23.350;2023-05-24T03:27:29;63211.84;;;11.77;100.00
6899;BME280;3488;42.616;23.350;2023-05-24T03:29:56;63221.19;;;11.86;100.00
6899;BME280;3488;42.616;23.350;2023-05-24T03:32:24;63228.91;;;11.91;100.00
6899;BME280;3488;42.616;23.350;2023-05-24T03:34:51;63233.66;;;12.01;100.00
6899;BME280;3488;42.616;23.350;2023-05-24T03:37:18;63248.53;;;12.05;100.00
6899;BME280;3488;42.616;23.350;2023-05-24T03:39:45;63254.78;;;12.14;100.00
6899;BME280;3488;42.616;23.350;2023-05-24T03:42:13;63262.66;;;12.26;100.00
6899;BME280;3488;42.616;23.350;2023-05-24T03:44:43;63269.38;;;12.33;100.00
6899;BME280;3488;42.616;23.350;2023-05-24T03:47:10;63287.94;;;12.46;100.00
6899;BME280;3488;42.616;23.350;2023-05-24T03:49:37;63293.22;;;12.56;100.00
6899;BME280;3488;42.616;23.350;2023-05-24T03:52:04;63297.38;;;12.60;100.00
6899;BME280;3488;42.616;23.350;2023-05-24T03:54:31;63313.38;;;12.70;100.00
6899;BME280;3488;42.616;23.350;2023-05-24T03:56:58;63334.13;;;12.91;100.00
6899;BME280;3488;42.616;23.350;2023-05-24T03:59:26;63345.59;;;13.04;100.00
6899;BME280;3488;42.616;23.350;2023-05-24T04:01:54;63360.13;;;13.21;100.00
6899;BME280;3488;42.616;23.350;2023-05-24T04:04:21;63373.09;;;13.33;98.39
6899;BME280;3488;42.616;23.350;2023-05-24T04:06:48;63387.59;;;13.45;98.26
6899;BME280;3488;42.616;23.350;2023-05-24T04:09:15;63400.53;;;13.55;98.97
6899;BME280;3488;42.616;23.350;2023-05-24T04:11:42;63403.13;;;13.57;98.26
6899;BME280;3488;42.616;23.350;2023-05-24T04:14:09;63408.88;;;13.65;99.42
6899;BME280;3488;42.616;23.350;2023-05-24T04:16:36;63415.13;;;13.74;100.00
6899;BME280;3488;42.616;23.350;2023-05-24T04:19:05;63425.00;;;13.83;100.00
6899;BME280;3488;42.616;23.350;2023-05-24T04:21:33;63412.53;;;13.71;100.00
6899;BME280;3488;42.616;23.350;2023-05-24T04:24:01;63394.94;;;13.57;100.00
6899;BME280;3488;42.616;23.350;2023-05-24T04:26:29;63407.75;;;13.59;100.00
6899;BME280;3488;42.616;23.350;2023-05-24T04:28:56;63418.75;;;13.75;100.00
6899;BME280;3488;42.616;23.350;2023-05-24T04:31:23;63427.06;;;13.85;100.00
6899;BME280;3488;42.616;23.350;2023-05-24T04:33:50;63442.59;;;13.98;100.00
6899;BME280;3488;42.616;23.350;2023-05-24T04:36:19;63442.09;;;13.98;100.00
6899;BME280;3488;42.616;23.350;2023-05-24T04:38:47;63426.50;;;13.82;100.00
6899;BME280;3488;42.616;23.350;2023-05-24T04:41:14;63408.38;;;13.67;100.00
6899;BME280;3488;42.616;23.350;2023-05-24T04:43:42;63429.53;;;13.80;100.00
6899;BME280;3488;42.616;23.350;2023-05-24T04:46:09;63429.63;;;13.85;100.00
6899;BME280;3488;42.616;23.350;2023-05-24T04:48:39;63448.31;;;14.04;100.00
6899;BME280;3488;42.616;23.350;2023-05-24T04:51:06;63453.53;;;14.11;100.00
6899;BME280;3488;42.616;23.350;2023-05-24T04:53:35;63457.66;;;14.13;100.00
6899;BME280;3488;42.616;23.350;2023-05-24T04:56:03;63506.41;;;14.55;100.00
6899;BME280;3488;42.616;23.350;2023-05-24T04:58:30;63509.09;;;14.62;100.00
6899;BME280;3488;42.616;23.350;2023-05-24T05:00:57;63518.97;;;14.72;100.00
6899;BME280;3488;42.616;23.350;2023-05-24T05:03:25;63527.22;;;14.77;100.00
6899;BME280;3488;42.616;23.350;2023-05-24T05:05:52;63528.75;;;14.76;99.50
6899;BME280;3488;42.616;23.350;2023-05-24T05:08:19;63538.19;;;14.90;99.35
6899;BME280;3488;42.616;23.350;2023-05-24T05:10:48;63546.00;;;15.00;96.82
6899;BME280;3488;42.616;23.350;2023-05-24T05:13:15;63562.06;;;15.14;94.31
6899;BME280;3488;42.616;23.350;2023-05-24T05:15:42;63556.94;;;15.14;96.55
6899;BME280;3488;42.616;23.350;2023-05-24T05:18:10;63581.81;;;15.33;94.63
6899;BME280;3488;42.616;23.350;2023-05-24T05:20:37;63601.03;;;15.49;90.31
6899;BME280;3488;42.616;23.350;2023-05-24T05:23:04;63611.97;;;15.62;89.97
6899;BME280;3488;42.616;23.350;2023-05-24T05:25:31;63620.81;;;15.70;87.59
6899;BME280;3488;42.616;23.350;2023-05-24T05:27:59;63619.25;;;15.69;87.79
6899;BME280;3488;42.616;23.350;2023-05-24T05:30:27;63632.78;;;15.82;89.79
6899;BME280;3488;42.616;23.350;2023-05-24T05:32:54;63631.78;;;15.83;89.65
6899;BME280;3488;42.616;23.350;2023-05-24T05:35:21;63654.63;;;16.05;86.68
6899;BME280;3488;42.616;23.350;2023-05-24T05:37:48;63666.03;;;16.14;85.15
6899;BME280;3488;42.616;23.350;2023-05-24T05:40:15;63666.00;;;16.09;85.19
6899;BME280;3488;42.616;23.350;2023-05-24T05:42:43;63645.28;;;15.96;86.92
6899;BME280;3488;42.616;23.350;2023-05-24T05:45:13;63671.78;;;16.19;86.21
6899;BME280;3488;42.616;23.350;2023-05-24T05:47:40;63691.06;;;16.43;84.33
6899;BME280;3488;42.616;23.350;2023-05-24T05:50:08;63723.81;;;16.70;83.53
6899;BME280;3488;42.616;23.350;2023-05-24T05:52:35;63718.59;;;16.65;82.02
6899;BME280;3488;42.616;23.350;2023-05-24T05:55:02;63721.72;;;16.68;80.30
6899;BME280;3488;42.616;23.350;2023-05-24T05:57:29;63731.59;;;16.75;81.75
6899;BME280;3488;42.616;23.350;2023-05-24T05:59:56;63731.09;;;16.77;80.20
6899;BME280;3488;42.616;23.350;2023-05-24T06:02:24;63735.78;;;16.81;83.23
6899;BME280;3488;42.616;23.350;2023-05-24T06:04:51;63752.38;;;16.92;82.78
6899;BME280;3488;42.616;23.350;2023-05-24T06:07:18;63764.91;;;17.09;78.12
6899;BME280;3488;42.616;23.350;2023-05-24T06:09:45;63763.34;;;17.08;77.15
6899;BME280;3488;42.616;23.350;2023-05-24T06:12:12;63752.44;;;17.00;77.34
6899;BME280;3488;42.616;23.350;2023-05-24T06:14:38;63762.31;;;17.07;75.73
6899;BME280;3488;42.616;23.350;2023-05-24T06:17:05;63768.03;;;17.12;77.11
6899;BME280;3488;42.616;23.350;2023-05-24T06:19:35;63772.19;;;17.16;78.56
6899;BME280;3488;42.616;23.350;2023-05-24T06:22:03;63771.69;;;17.16;77.79
6899;BME280;3488;42.616;23.350;2023-05-24T06:24:30;63768.56;;;17.13;78.65
6899;BME280;3488;42.616;23.350;2023-05-24T06:26:59;63772.66;;;17.12;74.72
6899;BME280;3488;42.616;23.350;2023-05-24T06:29:26;63795.09;;;17.39;72.80
6899;BME280;3488;42.616;23.350;2023-05-24T06:31:53;63824.25;;;17.64;72.94
6899;BME280;3488;42.616;23.350;2023-05-24T06:34:19;63818.03;;;17.61;71.34
6899;BME280;3488;42.616;23.350;2023-05-24T06:36:48;63807.09;;;17.50;68.14
6899;BME280;3488;42.616;23.350;2023-05-24T06:39:17;63801.84;;;17.43;70.75
6899;BME280;3488;42.616;23.350;2023-05-24T06:41:45;63812.28;;;17.53;70.69
6899;BME280;3488;42.616;23.350;2023-05-24T06:44:15;63847.16;;;17.86;67.94
6899;BME280;3488;42.616;23.350;2023-05-24T06:46:43;63856.03;;;17.97;67.51
6899;BME280;3488;42.616;23.350;2023-05-24T06:49:11;63872.72;;;18.16;64.49
6899;BME280;3488;42.616;23.350;2023-05-24T06:51:38;63882.13;;;18.25;65.39
6899;BME280;3488;42.616;23.350;2023-05-24T06:54:06;63876.88;;;18.17;64.70
6899;BME280;3488;42.616;23.350;2023-05-24T06:56:33;63893.50;;;18.31;64.53
6899;BME280;3488;42.616;23.350;2023-05-24T06:59:00;63923.19;;;18.55;63.20
6899;BME280;3488;42.616;23.350;2023-05-24T07:01:27;63935.28;;;18.76;62.95
6899;BME280;3488;42.616;23.350;2023-05-24T07:03:55;63925.88;;;18.65;62.22
6899;BME280;3488;42.616;23.350;2023-05-24T07:06:22;63935.22;;;18.69;59.87
6899;BME280;3488;42.616;23.350;2023-05-24T07:08:49;63937.84;;;18.74;61.33
6899;BME280;3488;42.616;23.350;2023-05-24T07:11:18;63939.41;;;18.78;60.33
6899;BME280;3488;42.616;23.350;2023-05-24T07:13:45;63937.34;;;18.78;60.75
6899;BME280;3488;42.616;23.350;2023-05-24T07:16:12;63966.50;;;19.01;60.34
6899;BME280;3488;42.616;23.350;2023-05-24T07:18:40;63978.00;;;19.15;60.58
6899;BME280;3488;42.616;23.350;2023-05-24T07:21:07;63969.69;;;19.09;58.74
6899;BME280;3488;42.616;23.350;2023-05-24T07:23:34;63981.16;;;19.20;59.72
6899;BME280;3488;42.616;23.350;2023-05-24T07:26:02;63989.97;;;19.24;59.21
6899;BME280;3488;42.616;23.350;2023-05-24T07:28:30;64009.25;;;19.40;58.79
6899;BME280;3488;42.616;23.350;2023-05-24T07:30:57;64014.50;;;19.50;58.42
6899;BME280;3488;42.616;23.350;2023-05-24T07:33:24;64023.88;;;19.59;59.35
6899;BME280;3488;42.616;23.350;2023-05-24T07:35:51;64040.59;;;19.75;56.13
6899;BME280;3488;42.616;23.350;2023-05-24T07:38:19;64053.06;;;19.85;58.52
6899;BME280;3488;42.616;23.350;2023-05-24T07:40:46;64072.91;;;20.04;58.39
6899;BME280;3488;42.616;23.350;2023-05-24T07:43:14;64082.84;;;20.16;57.53
6899;BME280;3488;42.616;23.350;2023-05-24T07:45:43;64093.78;;;20.24;60.39
6899;BME280;3488;42.616;23.350;2023-05-24T07:48:10;64082.28;;;20.13;56.64
6899;BME280;3488;42.616;23.350;2023-05-24T07:50:37;64062.50;;;19.96;54.92
6899;BME280;3488;42.616;23.350;2023-05-24T07:53:04;64069.22;;;19.98;53.55
6899;BME280;3488;42.616;23.350;2023-05-24T07:55:31;64075.47;;;20.04;58.07
6899;BME280;3488;42.616;23.350;2023-05-24T07:57:58;64090.16;;;20.20;58.87
6899;BME280;3488;42.616;23.350;2023-05-24T08:00:25;64105.28;;;20.37;56.66
6899;BME280;3488;42.616;23.350;2023-05-24T08:02:54;64105.75;;;20.33;53.60
6899;BME280;3488;42.616;23.350;2023-05-24T08:05:22;64095.91;;;20.28;56.11
6899;BME280;3488;42.616;23.350;2023-05-24T08:07:49;64072.41;;;20.06;51.20
6899;BME280;3488;42.616;23.350;2023-05-24T08:10:16;64089.63;;;20.20;54.80
6899;BME280;3488;42.616;23.350;2023-05-24T08:12:43;64100.56;;;20.30;51.91
6899;BME280;3488;42.616;23.350;2023-05-24T08:15:10;64090.66;;;20.21;52.91
6899;BME280;3488;42.616;23.350;2023-05-24T08:17:37;64100.09;;;20.35;52.25
6899;BME280;3488;42.616;23.350;2023-05-24T08:20:07;64124.09;;;20.58;52.13
6899;BME280;3488;42.616;23.350;2023-05-24T08:22:38;64148.59;;;20.77;51.57
6899;BME280;3488;42.616;23.350;2023-05-24T08:25:05;64145.50;;;20.79;50.17
6899;BME280;3488;42.616;23.350;2023-05-24T08:27:32;64141.31;;;20.72;50.67
6899;BME280;3488;42.616;23.350;2023-05-24T08:29:59;64165.81;;;20.93;47.36
6899;BME280;3488;42.616;23.350;2023-05-24T08:32:26;64165.31;;;20.95;48.06
6899;BME280;3488;42.616;23.350;2023-05-24T08:34:53;64178.88;;;21.06;45.88
6899;BME280;3488;42.616;23.350;2023-05-24T08:37:23;64181.50;;;21.08;44.60
6899;BME280;3488;42.616;23.350;2023-05-24T08:39:50;64178.41;;;21.10;44.61
6899;BME280;3488;42.616;23.350;2023-05-24T08:42:18;64208.09;;;21.31;44.51
6899;BME280;3488;42.616;23.350;2023-05-24T08:44:47;64221.19;;;21.46;44.81
6899;BME280;3488;42.616;23.350;2023-05-24T08:47:14;64225.91;;;21.56;43.92
6899;BME280;3488;42.616;23.350;2023-05-24T08:49:42;64213.84;;;21.37;45.44
6899;BME280;3488;42.616;23.350;2023-05-24T08:52:11;64221.75;;;21.52;45.21
6899;BME280;3488;42.616;23.350;2023-05-24T08:54:40;64247.81;;;21.69;46.44
6899;BME280;3488;42.616;23.350;2023-05-24T08:57:09;64277.63;;;21.98;45.42
6899;BME280;3488;42.616;23.350;2023-05-24T08:59:38;64277.13;;;22.00;43.19
6899;BME280;3488;42.616;23.350;2023-05-24T09:02:07;64283.41;;;22.09;42.80
6899;BME280;3488;42.616;23.350;2023-05-24T09:04:38;64297.50;;;22.22;45.75
6899;BME280;3488;42.616;23.350;2023-05-24T09:07:06;64304.28;;;22.29;42.57
6899;BME280;3488;42.616;23.350;2023-05-24T09:09:33;64310.53;;;22.30;40.85
6899;BME280;3488;42.616;23.350;2023-05-24T09:12:04;64297.50;;;22.22;41.14
6899;BME280;3488;42.616;23.350;2023-05-24T09:14:33;64307.38;;;22.27;40.04
6899;BME280;3488;42.616;23.350;2023-05-24T09:17:01;64318.41;;;22.40;39.92
6899;BME280;3488;42.616;23.350;2023-05-24T09:19:28;64317.88;;;22.39;41.04
6899;BME280;3488;42.616;23.350;2023-05-24T09:21:56;64309.53;;;22.34;41.48
6899;BME280;3488;42.616;23.350;2023-05-24T09:24:25;64306.91;;;22.31;43.23
6899;BME280;3488;42.616;23.350;2023-05-24T09:26:52;64333.59;;;22.57;44.15
6899;BME280;3488;42.616;23.350;2023-05-24T09:29:22;64343.50;;;22.64;42.04
6899;BME280;3488;42.616;23.350;2023-05-24T09:31:54;64349.75;;;22.67;41.95
6899;BME280;3488;42.616;23.350;2023-05-24T09:34:23;64354.47;;;22.74;43.05
6899;BME280;3488;42.616;23.350;2023-05-24T09:36:51;64370.69;;;22.90;39.13
6899;BME280;3488;42.616;23.350;2023-05-24T09:39:18;64394.72;;;23.11;42.06
6899;BME280;3488;42.616;23.350;2023-05-24T09:41:51;64391.09;;;23.12;41.37
6899;BME280;3488;42.616;23.350;2023-05-24T09:44:25;64406.78;;;23.27;39.78
6899;BME280;3488;42.616;23.350;2023-05-24T09:46:52;64399.50;;;23.23;41.26
6899;BME280;3488;42.616;23.350;2023-05-24T09:49:20;64415.72;;;23.38;41.44
6899;BME280;3488;42.616;23.350;2023-05-24T09:51:47;64417.78;;;23.38;40.15
6899;BME280;3488;42.616;23.350;2023-05-24T09:54:14;64426.13;;;23.41;37.59
6899;BME280;3488;42.616;23.350;2023-05-24T09:56:45;64407.84;;;23.28;39.46
6899;BME280;3488;42.616;23.350;2023-05-24T09:59:13;64416.22;;;23.36;38.14
6899;BME280;3488;42.616;23.350;2023-05-24T10:01:41;64414.09;;;23.32;40.63
6899;BME280;3488;42.616;23.350;2023-05-24T10:04:08;64434.53;;;23.54;38.77
6899;BME280;3488;42.616;23.350;2023-05-24T10:06:36;64431.91;;;23.51;38.11
6899;BME280;3488;42.616;23.350;2023-05-24T10:09:03;64449.69;;;23.68;39.85
6899;BME280;3488;42.616;23.350;2023-05-24T10:11:33;64443.94;;;23.60;37.86
6899;BME280;3488;42.616;23.350;2023-05-24T10:14:03;64468.00;;;23.83;37.91
6899;BME280;3488;42.616;23.350;2023-05-24T10:16:31;64443.94;;;23.60;37.75
6899;BME280;3488;42.616;23.350;2023-05-24T10:19:00;64417.78;;;23.38;38.39
6899;BME280;3488;42.616;23.350;2023-05-24T10:21:28;64432.44;;;23.52;37.77
6899;BME280;3488;42.616;23.350;2023-05-24T10:23:58;64453.31;;;23.64;37.36
6899;BME280;3488;42.616;23.350;2023-05-24T10:26:30;64465.91;;;23.84;35.62
6899;BME280;3488;42.616;23.350;2023-05-24T10:29:03;64450.19;;;23.66;35.96
6899;BME280;3488;42.616;23.350;2023-05-24T10:31:33;64420.94;;;23.43;36.71
6899;BME280;3488;42.616;23.350;2023-05-24T10:34:04;64435.03;;;23.52;36.48
6899;BME280;3488;42.616;23.350;2023-05-24T10:36:33;64418.31;;;23.38;36.30
6899;BME280;3488;42.616;23.350;2023-05-24T10:39:01;64418.31;;;23.38;36.69
6899;BME280;3488;42.616;23.350;2023-05-24T10:41:28;64430.34;;;23.52;36.88
6899;BME280;3488;42.616;23.350;2023-05-24T10:43:56;64435.00;;;23.44;37.17
6899;BME280;3488;42.616;23.350;2023-05-24T10:46:23;64422.47;;;23.37;37.04
6899;BME280;3488;42.616;23.350;2023-05-24T10:48:58;64417.28;;;23.40;36.84
6899;BME280;3488;42.616;23.350;2023-05-24T10:51:35;64396.31;;;23.17;36.18
6899;BME280;3488;42.616;23.350;2023-05-24T10:54:13;64419.88;;;23.42;36.49
6899;BME280;3488;42.616;23.350;2023-05-24T10:56:42;64454.91;;;23.71;34.92
6899;BME280;3488;42.616;23.350;2023-05-24T10:59:21;64481.63;;;23.99;36.36
6899;BME280;3488;42.616;23.350;2023-05-24T11:01:54;64513.53;;;24.25;35.46
6899;BME280;3488;42.616;23.350;2023-05-24T11:04:22;64510.94;;;24.27;37.17
6899;BME280;3488;42.616;23.350;2023-05-24T11:06:55;64506.75;;;24.21;33.33
6899;BME280;3488;42.616;23.350;2023-05-24T11:09:23;64490.00;;;24.05;33.27
6899;BME280;3488;42.616;23.350;2023-05-24T11:11:54;64471.66;;;23.84;35.45
6899;BME280;3488;42.616;23.350;2023-05-24T11:14:28;64495.75;;;24.13;34.68
6899;BME280;3488;42.616;23.350;2023-05-24T11:16:57;64517.22;;;24.33;35.72
6899;BME280;3488;42.616;23.350;2023-05-24T11:19:30;64527.69;;;24.46;34.78
6899;BME280;3488;42.616;23.350;2023-05-24T11:22:01;64555.94;;;24.68;34.64
6899;BME280;3488;42.616;23.350;2023-05-24T11:24:29;64547.59;;;24.62;33.21
6899;BME280;3488;42.616;23.350;2023-05-24T11:26:56;64515.13;;;24.29;32.75
6899;BME280;3488;42.616;23.350;2023-05-24T11:29:23;64509.91;;;24.26;32.29
6899;BME280;3488;42.616;23.350;2023-05-24T11:31:51;64502.53;;;24.14;33.65
6899;BME280;3488;42.616;23.350;2023-05-24T11:34:19;64503.06;;;24.17;33.98
6899;BME280;3488;42.616;23.350;2023-05-24T11:36:46;64517.19;;;24.28;34.36
6899;BME280;3488;42.616;23.350;2023-05-24T11:39:16;64503.59;;;24.15;33.77
6899;BME280;3488;42.616;23.350;2023-05-24T11:41:43;64464.84;;;23.80;33.70
6899;BME280;3488;42.616;23.350;2023-05-24T11:44:11;64486.84;;;24.04;36.02
6899;BME280;3488;42.616;23.350;2023-05-24T11:46:42;64509.34;;;24.23;36.13
6899;BME280;3488;42.616;23.350;2023-05-24T11:49:11;64542.34;;;24.57;35.18
6899;BME280;3488;42.616;23.350;2023-05-24T11:51:39;64568.53;;;24.80;35.52
6899;BME280;3488;42.616;23.350;2023-05-24T11:54:06;64590.53;;;25.01;35.18
6899;BME280;3488;42.616;23.350;2023-05-24T11:56:35;64617.78;;;25.30;33.87
6899;BME280;3488;42.616;23.350;2023-05-24T11:59:12;64606.22;;;25.13;32.29
6899;BME280;3488;42.616;23.350;2023-05-24T12:01:40;64573.78;;;24.85;32.81
6899;BME280;3488;42.616;23.350;2023-05-24T12:04:07;64620.38;;;25.30;33.55
6899;BME280;3488;42.616;23.350;2023-05-24T12:06:36;64613.06;;;25.23;31.57
6899;BME280;3488;42.616;23.350;2023-05-24T12:09:03;64641.34;;;25.50;32.41
6899;BME280;3488;42.616;23.350;2023-05-24T12:11:38;64657.06;;;25.62;33.19
6899;BME280;3488;42.616;23.350;2023-05-24T12:14:10;64675.94;;;25.83;33.31
6899;BME280;3488;42.616;23.350;2023-05-24T12:16:38;64734.16;;;26.44;34.39
6899;BME280;3488;42.616;23.350;2023-05-24T12:19:05;64787.13;;;26.89;30.81
6899;BME280;3488;42.616;23.350;2023-05-24T12:21:33;64822.25;;;27.23;31.78
6899;BME280;3488;42.616;23.350;2023-05-24T12:24:07;64843.28;;;27.46;33.37
6899;BME280;3488;42.616;23.350;2023-05-24T12:26:36;64834.88;;;27.35;29.05
6899;BME280;3488;42.616;23.350;2023-05-24T12:29:04;64842.22;;;27.45;29.81
6899;BME280;3488;42.616;23.350;2023-05-24T12:31:31;64852.72;;;27.57;30.05
6899;BME280;3488;42.616;23.350;2023-05-24T12:33:58;64879.47;;;27.80;31.87
6899;BME280;3488;42.616;23.350;2023-05-24T12:36:27;64897.84;;;27.95;31.23
6899;BME280;3488;42.616;23.350;2023-05-24T12:38:56;64953.50;;;28.49;30.20
6899;BME280;3488;42.616;23.350;2023-05-24T12:41:23;64912.53;;;28.07;33.13
6899;BME280;3488;42.616;23.350;2023-05-24T12:43:52;64930.94;;;28.29;28.95
6899;BME280;3488;42.616;23.350;2023-05-24T12:46:21;64910.44;;;28.02;28.87
6899;BME280;3488;42.616;23.350;2023-05-24T12:48:48;64945.09;;;28.38;27.66
6899;BME280;3488;42.616;23.350;2023-05-24T12:51:15;64923.56;;;28.22;28.25
6899;BME280;3488;42.616;23.350;2023-05-24T12:53:41;64920.41;;;28.17;28.43
6899;BME280;3488;42.616;23.350;2023-05-24T12:56:08;64935.66;;;28.34;29.08
6899;BME280;3488;42.616;23.350;2023-05-24T12:58:35;64925.69;;;28.24;30.50
6899;BME280;3488;42.616;23.350;2023-05-24T13:01:03;64925.69;;;28.24;30.20
6899;BME280;3488;42.616;23.350;2023-05-24T13:03:31;64945.09;;;28.40;29.30
6899;BME280;3488;42.616;23.350;2023-05-24T13:05:58;65000.25;;;28.91;31.21
6899;BME280;3488;42.616;23.350;2023-05-24T13:08:26;65021.81;;;29.14;30.52
6899;BME280;3488;42.616;23.350;2023-05-24T13:10:54;65055.44;;;29.48;28.56
6899;BME280;3488;42.616;23.350;2023-05-24T13:13:21;65006.53;;;28.99;30.56